Latest Coastal Weather Observations for Low Head

IDT60701

Issued at 9:55 pm EST Friday 1 August 2014 (issued every 10 minutes, with the page automatically refreshed every 10 minutes)

About coastal observations | Map of coastal stations | Coastal observations for TAS | Marine services | Other Formats
Station Details ID: 091293 Name: LOW HEAD Lat: -41.05 Lon: 146.79 Height: 3.0 m
Data from the previous 72 hours. | See also: Recent months at Low Head
Date/Time
EST
Temp

°C
Wind Pressure Rain
since 9am
mm
Weather Cloud Vis
km
Sea
Height
m
Swell
Dir
 
Speed
knots
Gust
knots
hPa Trend Height
m
Period
s
Dir
01/09:30pm 7.3 SW 10 12 1013.9 - 2.8 - - - - - - -
01/09:00pm 7.6 WSW 11 12 1013.0 - 2.8 - - - - - - -
01/08:30pm 7.4 SSW 9 11 1012.2 - 2.8 - - - - - - -
01/08:00pm 7.0 SSW 11 12 1011.4 - 2.8 - - - - - - -
01/07:30pm 7.7 WSW 8 10 1010.6 - 2.8 - - - - - - -
01/07:00pm 7.3 SW 6 8 1009.7 - 2.8 - - - - - - -
01/06:30pm 6.8 SW 5 7 1008.6 - 2.8 - - - - - - -
01/06:00pm 6.9 S 9 11 1007.5 - 2.8 - - - - - - -
01/05:30pm 7.1 S 14 19 1006.4 - 2.8 - - - - - - -
01/05:00pm 6.5 SSW 11 14 1005.3 - 2.8 - - - - - - -
01/04:30pm 6.1 SSE 10 14 1004.1 - 2.8 - - - - - - -
01/04:00pm 5.5 SSE 10 13 1003.6 - 2.8 - - - - - - -
01/03:30pm 5.8 S 22 27 1002.0 - 1.6 - - - - - - -
01/03:13pm 7.9 SSW 27 39 1000.6 - 0.0 - - - - - - -
01/03:00pm 9.2 SW 22 27 999.5 R 0.0 Fine Cloudy 20 2 1.5 3 NW
01/02:45pm 9.9 SW 20 23 998.6 - 0.0 - - - - - - -
01/02:30pm 10.0 W 16 19 997.9 - 0.0 - - - - - - -
01/02:00pm 9.8 W 19 22 997.5 - 0.0 - - - - - - -
01/01:30pm 10.2 W 20 25 997.3 - 0.0 - - - - - - -
01/01:00pm 10.3 WNW 20 25 997.4 - 0.0 - - - - - - -
01/12:30pm 9.8 W 20 24 997.2 - 0.0 - - - - - - -
01/12:00pm 9.5 W 21 25 996.9 - 0.0 - - - - - - -
01/11:30am 9.2 W 19 23 996.9 - 0.0 - - - - - - -
01/11:00am 9.1 W 16 20 996.1 - 0.0 - - - - - - -
01/10:30am 8.2 W 14 16 996.0 - 0.0 - - - - - - -
01/10:00am 8.2 WSW 14 17 995.3 - 0.0 - - - - - - -
01/09:30am 8.3 W 17 21 995.8 - 0.0 - - - - - - -
01/09:00am 8.0 W 16 21 995.2 F 6.4 Fine Mostly cloudy 20 2 1.5 3 NW
01/08:30am 7.5 WSW 12 17 994.6 - 6.4 - - - - - - -
01/08:00am 7.3 WSW 12 15 994.3 - 6.4 - - - - - - -
01/07:30am 7.4 WSW 16 19 993.7 - 6.4 - - - - - - -
01/07:00am 8.4 W 16 20 993.6 - 6.4 - - - - - - -
01/06:34am 8.3 WSW 15 26 993.0 - 6.4 - - - - - - -
01/06:30am 8.3 WSW 15 18 992.9 - 6.2 - - - - - - -
01/06:00am 9.2 W 19 24 992.5 F 6.2 Fine Partly cloudy 20 2 1.5 3 NW
01/05:30am 8.7 W 17 21 992.5 - 6.2 - - - - - - -
01/05:00am 7.4 WNW 16 22 992.7 - 6.2 - - - - - - -
01/04:30am 9.0 W 24 35 992.7 - 5.8 - - - - - - -
01/04:21am 8.0 W 23 33 992.4 - 5.8 - - - - - - -
01/04:00am 8.8 WNW 23 29 992.9 - 5.4 - - - - - - -
01/03:30am 8.4 NW 25 31 993.0 - 5.4 - - - - - - -
01/03:00am 8.5 WNW 36 45 993.5 - 5.4 - - - - - - -
01/02:52am 8.7 W 33 45 993.4 - 5.4 - - - - - - -
01/02:47am 9.4 W 33 38 993.0 - 5.4 - - - - - - -
01/02:33am 9.5 W 23 35 992.8 - 5.4 - - - - - - -
01/02:30am 9.5 W 23 29 992.9 - 5.4 - - - - - - -
01/02:00am 9.4 W 30 35 992.5 - 5.4 - - - - - - -
01/01:30am 9.2 W 31 38 992.5 - 5.4 - - - - - - -
01/01:00am 8.9 W 31 38 992.1 - 5.4 - - - - - - -
01/12:30am 9.3 W 31 37 992.0 - 5.4 - - - - - - -
01/12:00am 8.9 WNW 31 35 991.5 - 5.4 - - - - - - -
 
Date/Time
EST
Temp

°C
Wind Pressure Rain
since 9am
mm
Weather Cloud Vis
km
Sea
Height
m
Swell
Dir
 
Speed
knots
Gust
knots
hPa Trend Height
m
Period
s
Dir
31/11:30pm 8.7 W 30 39 991.6 - 5.4 - - - - - - -
31/11:00pm 9.1 W 32 39 991.5 - 5.4 - - - - - - -
31/10:30pm 8.7 W 28 34 991.1 - 5.4 - - - - - - -
31/10:06pm 8.2 W 33 43 990.8 - 5.4 - - - - - - -
31/10:00pm 8.8 W 36 43 990.7 - 5.4 - - - - - - -
31/09:42pm 9.5 W 34 46 990.1 - 5.4 - - - - - - -
31/09:30pm 9.3 W 31 38 989.9 - 5.4 - - - - - - -
31/09:03pm 10.1 WNW 35 47 989.4 - 5.4 - - - - - - -
31/09:00pm 10.3 WNW 35 44 989.4 - 5.4 - - - - - - -
31/08:59pm 10.3 WNW 34 44 989.4 - 5.4 - - - - - - -
31/08:30pm 10.1 WNW 34 42 989.3 - 5.4 - - - - - - -
31/08:17pm 10.2 WNW 33 43 989.0 - 5.4 - - - - - - -
31/08:00pm 10.5 WNW 30 36 989.1 - 5.4 - - - - - - -
31/07:42pm 10.1 WNW 30 41 989.0 - 5.4 - - - - - - -
31/07:30pm 9.8 WNW 30 36 989.1 - 5.4 - - - - - - -
31/07:00pm 8.8 W 29 48 988.7 - 5.4 - - - - - - -
31/06:57pm 8.7 W 30 51 988.6 - 5.4 - - - - - - -
31/06:54pm 8.9 W 41 51 988.7 - 5.4 - - - - - - -
31/06:50pm 9.8 W 45 51 988.6 - 5.4 - - - - - - -
31/06:37pm 10.4 WNW 34 44 988.2 - 5.4 - - - - - - -
31/06:30pm 10.4 WNW 35 41 988.5 - 5.4 - - - - - - -
31/06:00pm 10.7 WNW 34 41 987.5 - 5.4 - - - - - - -
31/05:30pm 10.6 WNW 34 43 987.9 - 5.4 - - - - - - -
31/05:00pm 10.1 WNW 37 51 987.6 - 5.4 - - - - - - -
31/04:32pm 11.0 WNW 34 44 986.7 - 5.4 - - - - - - -
31/04:30pm 10.8 NW 35 44 986.6 - 5.4 - - - - - - -
31/04:00pm 9.1 WNW 36 49 987.2 - 5.4 - - - - - - -
31/03:46pm 9.0 W 37 47 988.1 - 5.0 - - - - - - -
31/03:30pm 9.8 WNW 33 39 987.5 - 4.4 - - - - - - -
31/03:14pm 10.2 WNW 31 41 987.0 - 4.0 - - - - - - -
31/03:00pm 10.6 WNW 29 35 986.4 - 4.0 - - - - - - -
31/02:30pm 10.2 WNW 26 32 985.5 - 4.0 - - - - - - -
31/02:00pm 10.4 W 30 42 985.6 - 3.8 - - - - - - -
31/01:58pm 10.3 W 32 42 985.5 - 3.8 - - - - - - -
31/01:56pm 10.2 W 33 42 985.4 - 3.8 - - - - - - -
31/01:30pm 10.5 WNW 32 43 985.2 - 3.0 - - - - - - -
31/01:27pm 10.4 WNW 32 43 985.0 - 2.8 - - - - - - -
31/01:19pm 10.9 NW 32 54 984.9 - 1.8 - - - - - - -
31/01:12pm 11.3 NW 44 55 984.8 - 0.0 - - - - - - -
31/01:00pm 13.6 N 42 52 983.4 - 0.0 - - - - - - -
31/12:32pm 13.8 NNW 39 49 984.6 - 0.0 - - - - - - -
31/12:30pm 13.9 NNW 40 49 984.7 - 0.0 - - - - - - -
31/12:00pm 14.2 NNW 38 49 986.1 - 0.0 - - - - - - -
31/11:30am 14.2 NNW 39 49 987.1 - 0.0 - - - - - - -
31/11:09am 14.2 NNW 36 46 987.8 - 0.0 - - - - - - -
31/11:00am 14.3 NNW 38 47 988.1 - 0.0 - - - - - - -
31/10:33am 14.2 NNW 36 48 988.5 - 0.0 - - - - - - -
31/10:30am 14.0 NNW 36 45 988.5 - 0.0 - - - - - - -
31/10:00am 13.9 NNW 39 50 989.2 - 0.0 - - - - - - -
31/09:30am 14.0 NNW 38 48 989.8 - 0.0 - - - - - - -
31/09:00am 13.8 NNW 34 44 990.4 - 18.6 - - - - - - -
31/08:51am 13.8 NNW 34 44 990.6 - 18.6 - - - - - - -
31/08:30am 13.6 NNW 33 42 991.2 - 18.6 - - - - - - -
31/08:04am 13.4 NNW 32 42 991.8 - 18.6 - - - - - - -
31/08:00am 13.3 NNW 31 39 991.7 - 18.6 - - - - - - -
31/07:30am 12.8 NNW 33 45 992.2 - 18.6 - - - - - - -
31/07:00am 12.8 NNW 35 47 992.7 - 16.8 - - - - - - -
31/06:46am 13.5 NNW 36 46 992.4 - 16.6 - - - - - - -
31/06:30am 13.6 NNW 34 43 992.3 - 16.6 - - - - - - -
31/06:00am 13.2 NNW 33 42 992.7 - 16.4 - - - - - - -
31/05:30am 13.0 NNW 32 44 993.5 - 15.8 - - - - - - -
31/05:25am 13.3 NNW 33 44 993.6 - 15.8 - - - - - - -
31/05:00am 13.1 NNW 33 41 994.3 - 15.8 - - - - - - -
31/04:35am 13.2 NNW 34 44 994.2 - 15.8 - - - - - - -
31/04:30am 13.3 NNW 36 45 994.2 - 15.8 - - - - - - -
31/04:07am 13.7 NNW 33 44 994.2 - 15.8 - - - - - - -
31/04:00am 13.7 NNW 32 41 994.3 - 15.8 - - - - - - -
31/03:30am 13.8 NNW 34 46 994.6 - 15.8 - - - - - - -
31/03:16am 13.8 NNW 34 44 994.8 - 15.8 - - - - - - -
31/03:00am 13.5 NW 34 43 995.0 - 15.6 - - - - - - -
31/02:47am 13.0 NW 35 41 995.1 - 15.6 - - - - - - -
31/02:33am 11.6 WNW 35 45 995.8 - 15.2 - - - - - - -
31/02:30am 11.2 WNW 35 43 995.9 - 14.8 - - - - - - -
31/02:19am 11.4 WNW 35 49 996.0 - 12.6 - - - - - - -
31/02:08am 13.0 NW 31 41 996.1 - 7.6 - - - - - - -
31/02:00am 12.9 NW 30 38 996.0 - 7.2 - - - - - - -
31/01:40am 13.0 NNW 33 43 996.2 - 6.0 - - - - - - -
31/01:30am 12.9 NNW 33 41 996.2 - 5.8 - - - - - - -
31/01:06am 13.0 NNW 35 46 996.4 - 4.8 - - - - - - -
31/01:00am 13.0 NNW 35 43 996.3 - 4.8 - - - - - - -
31/12:31am 12.9 NNW 33 45 997.4 - 4.4 - - - - - - -
31/12:30am 13.0 NNW 32 40 997.4 - 4.4 - - - - - - -
31/12:00am 13.1 NNW 35 43 998.0 - 4.2 - - - - - - -
 
Date/Time
EST
Temp

°C
Wind Pressure Rain
since 9am
mm
Weather Cloud Vis
km
Sea
Height
m
Swell
Dir
 
Speed
knots
Gust
knots
hPa Trend Height
m
Period
s
Dir
30/11:38pm 13.7 NNW 31 43 998.2 - 3.8 - - - - - - -
30/11:30pm 13.5 NNW 29 37 998.1 - 3.8 - - - - - - -
30/11:00pm 13.7 NW 30 40 998.5 - 3.8 - - - - - - -
30/10:32pm 13.5 NW 31 41 998.9 - 3.8 - - - - - - -
30/10:30pm 13.5 NW 32 41 998.9 - 3.8 - - - - - - -
30/10:12pm 13.3 NW 28 38 999.1 - 3.8 - - - - - - -
30/10:00pm 13.2 NW 29 35 999.4 - 3.6 - - - - - - -
30/09:30pm 13.0 NW 26 33 999.7 - 3.6 - - - - - - -
30/09:00pm 12.3 WNW 29 39 1000.2 - 3.4 - - - - - - -
30/08:49pm 13.5 NNW 25 35 999.6 - 0.4 - - - - - - -
30/08:30pm 14.0 NW 26 32 999.9 - 0.2 - - - - - - -
30/08:00pm 14.0 NW 27 35 1000.4 - 0.2 - - - - - - -
30/07:30pm 13.8 NW 22 28 1000.2 - 0.2 - - - - - - -
30/07:00pm 13.8 NW 25 31 1000.6 - 0.2 - - - - - - -
30/06:30pm 13.7 NW 26 31 1000.6 - 0.2 - - - - - - -
30/06:00pm 13.8 WNW 26 32 1000.8 - 0.2 - - - - - - -
30/05:30pm 13.8 NW 27 35 1000.5 - 0.2 - - - - - - -
30/05:00pm 13.9 NW 28 35 1000.3 - 0.2 - - - - - - -
30/04:49pm 13.9 NW 26 36 1000.1 - 0.2 - - - - - - -
30/04:30pm 13.9 NW 27 32 1000.0 - 0.2 - - - - - - -
30/04:00pm 14.2 NW 27 33 999.8 - 0.2 - - - - - - -
30/03:30pm 14.3 NW 30 40 1000.1 - 0.2 - - - - - - -
30/03:29pm 14.2 NW 30 40 1000.1 - 0.2 - - - - - - -
30/03:00pm 14.2 WNW 30 38 1000.1 F 0.2 Showers Partly cloudy 20 2 1.5 3 -
30/02:30pm 13.7 NW 32 49 1000.4 - 0.2 - - - - - - -
30/02:12pm 13.7 NW 28 40 1000.4 - 0.2 - - - - - - -
30/02:00pm 13.9 NW 26 33 1000.6 - 0.2 - - - - - - -
30/01:30pm 14.0 NW 26 33 1000.8 - 0.2 - - - - - - -
30/01:00pm 13.8 WNW 26 32 1001.4 - 0.2 - - - - - - -
30/12:30pm 13.2 WNW 28 35 1002.0 - 0.2 - - - - - - -
30/12:00pm 13.6 NW 25 32 1002.6 - 0.0 - - - - - - -
30/11:30am 14.1 NW 25 32 1003.0 - 0.0 - - - - - - -
30/11:00am 13.9 NW 25 31 1003.4 - 0.0 - - - - - - -
30/10:30am 13.5 WNW 27 33 1003.7 - 0.0 - - - - - - -
30/10:00am 13.1 NW 26 31 1003.6 - 0.0 - - - - - - -
30/09:30am 13.1 WNW 27 34 1003.7 - 0.0 - - - - - - -
30/09:00am 13.0 NW 23 31 1003.4 F 12.4 Fine Cloudy 15 2 2.0 3 -
30/08:30am 12.8 NW 26 32 1003.3 - 12.4 - - - - - - -
30/08:00am 12.7 NW 20 23 1003.3 - 12.4 - - - - - - -
30/07:30am 12.6 WNW 22 27 1003.2 - 12.4 - - - - - - -
30/07:00am 12.5 WNW 24 29 1003.1 - 12.4 - - - - - - -
30/06:30am 12.5 WNW 24 30 1003.2 - 12.4 - - - - - - -
30/06:00am 12.4 WNW 23 28 1003.1 R 12.4 Fine Cloudy 20 2 2.5 3 -
30/05:30am 12.3 WNW 23 29 1002.8 - 12.4 - - - - - - -
30/05:00am 12.2 W 26 31 1002.4 - 12.4 - - - - - - -
30/04:30am 12.2 W 26 32 1002.2 - 12.4 - - - - - - -
30/04:00am 12.4 W 29 35 1001.6 - 12.4 - - - - - - -
30/03:30am 12.5 W 33 43 1001.2 - 12.4 - - - - - - -
30/03:21am 12.6 W 33 43 1001.0 - 12.4 - - - - - - -
30/03:00am 12.7 W 34 41 1000.8 - 12.4 - - - - - - -
30/02:31am 12.8 W 34 44 1000.4 - 12.4 - - - - - - -
30/02:30am 12.7 W 34 43 1000.4 - 12.4 - - - - - - -
30/02:16am 12.8 W 31 41 1000.2 - 12.4 - - - - - - -
30/02:00am 13.0 W 34 41 999.8 - 12.4 - - - - - - -
30/01:30am 13.0 W 35 45 999.3 - 12.4 - - - - - - -
30/01:25am 13.1 W 34 45 999.1 - 12.4 - - - - - - -
30/01:00am 12.9 W 31 39 998.9 - 12.4 - - - - - - -
30/12:30am 12.7 W 34 41 998.9 - 12.4 - - - - - - -
30/12:00am 13.1 W 39 51 998.1 - 12.4 - - - - - - -
 
Date/Time
EST
Temp

°C
Wind Pressure Rain
since 9am
mm
Weather Cloud Vis
km
Sea
Height
m
Swell
Dir
 
Speed
knots
Gust
knots
hPa Trend Height
m
Period
s
Dir
29/11:53pm 13.1 W 40 51 997.9 - 12.4 - - - - - - -
29/11:52pm 13.2 W 42 49 997.9 - 12.4 - - - - - - -
29/11:30pm 12.8 W 28 42 997.8 - 12.4 - - - - - - -
29/11:28pm 12.7 W 27 37 997.8 - 12.4 - - - - - - -
29/11:00pm 12.0 W 31 37 997.9 - 12.4 - - - - - - -
29/10:30pm 11.8 W 35 42 997.8 - 12.2 - - - - - - -
29/10:22pm 11.8 W 36 46 997.5 - 12.0 - - - - - - -
29/10:10pm 12.4 W 38 45 997.6 - 11.8 - - - - - - -
29/10:00pm 12.8 W 26 37 997.5 - 11.8 - - - - - - -
29/09:59pm 12.6 W 26 37 997.6 - 11.8 - - - - - - -

Other Formats:

Comma delimited format used in spreadsheet applications
http://www.bom.gov.au/fwo/IDT60701/IDT60701.95964.axf

JavaScript Object Notation format (JSON) in row-major order
http://www.bom.gov.au/fwo/IDT60701/IDT60701.95964.json